createdAt,value
2022-10-09T00:00:13.675Z,25.80
2022-10-09T00:01:07.301Z,26.35
2022-10-09T00:03:25.645Z,26.92
2022-10-09T00:04:11.124Z,26.00
2022-10-09T00:04:39.481Z,23.92
2022-10-09T00:05:41.392Z,26.88
2022-10-09T00:06:12.559Z,25.65
2022-10-09T00:06:13.948Z,24.05
2022-10-09T00:06:35.358Z,23.35
2022-10-09T00:06:57.094Z,24.35
2022-10-09T00:07:55.363Z,22.10
2022-10-09T00:09:03.911Z,25.75
2022-10-09T00:09:25.805Z,26.05
2022-10-09T00:10:28.970Z,25.38
2022-10-09T00:10:51.100Z,23.48
2022-10-09T00:11:16.322Z,25.15
2022-10-09T00:12:51.534Z,25.40
2022-10-09T00:13:28.860Z,27.02
2022-10-09T00:14:49.060Z,23.77
2022-10-09T00:16:04.899Z,25.17
2022-10-09T00:17:24.780Z,25.02
2022-10-09T00:17:46.782Z,23.45
2022-10-09T00:18:17.508Z,24.02
2022-10-09T00:19:04.445Z,26.50
2022-10-09T00:19:48.877Z,22.55
2022-10-09T00:21:13.508Z,22.95
2022-10-09T00:21:50.355Z,24.02
2022-10-09T00:22:12.252Z,22.40
2022-10-09T00:22:40.221Z,22.27
2022-10-09T00:23:23.928Z,22.38
2022-10-09T00:24:15.980Z,24.45
2022-10-09T00:25:01.176Z,22.52
2022-10-09T00:26:27.638Z,21.45
2022-10-09T00:27:04.439Z,25.05
2022-10-09T00:28:03.751Z,19.60
2022-10-09T00:28:30.537Z,23.30
2022-10-09T00:28:54.026Z,24.27
2022-10-09T00:29:21.916Z,21.70
2022-10-09T00:29:46.615Z,23.38
2022-10-09T00:29:58.098Z,25.35
2022-10-09T00:30:47.345Z,24.10
2022-10-09T00:31:08.333Z,23.35
2022-10-09T00:31:39.167Z,22.33
2022-10-09T00:32:20.427Z,21.63
2022-10-09T00:32:42.714Z,22.13
2022-10-09T00:33:37.008Z,21.20
2022-10-09T00:34:07.528Z,23.48
2022-10-09T00:34:38.183Z,23.00
2022-10-09T00:35:15.467Z,24.27
2022-10-09T00:36:14.633Z,23.05
2022-10-09T00:37:07.567Z,20.15
2022-10-09T00:37:35.798Z,21.48
2022-10-09T00:37:57.575Z,22.33
2022-10-09T00:38:39.953Z,22.17
2022-10-09T00:40:02.043Z,22.85
2022-10-09T00:42:32.511Z,22.75
2022-10-09T00:43:04.597Z,22.13
2022-10-09T00:45:24.183Z,21.70
2022-10-09T00:46:30.472Z,19.90
2022-10-09T00:46:52.860Z,23.25
2022-10-09T00:48:25.338Z,20.08
2022-10-09T00:49:12.460Z,19.63
2022-10-09T00:49:36.948Z,18.70
2022-10-09T00:52:09.936Z,18.30
2022-10-09T00:52:50.459Z,24.52
2022-10-09T00:53:30.099Z,19.35
2022-10-09T00:54:01.716Z,18.63
2022-10-09T00:54:28.774Z,21.42
2022-10-09T00:55:07.945Z,18.77
2022-10-09T00:55:30.870Z,18.23
2022-10-09T00:55:53.408Z,20.33
2022-10-09T00:56:15.373Z,16.98
2022-10-09T00:56:37.427Z,18.60
2022-10-09T00:56:59.967Z,20.90
2022-10-09T00:57:22.125Z,20.55
2022-10-09T00:57:44.223Z,17.40
2022-10-09T00:58:06.540Z,16.00
2022-10-09T00:58:28.391Z,19.55
2022-10-09T00:58:58.527Z,19.50
2022-10-09T01:00:26.473Z,20.05
2022-10-09T01:00:49.693Z,18.70
2022-10-09T01:01:19.523Z,17.90
2022-10-09T01:02:17.196Z,19.45
2022-10-09T01:02:45.624Z,17.73
2022-10-09T01:03:18.265Z,22.17
2022-10-09T01:03:40.379Z,19.90
2022-10-09T01:04:02.913Z,18.17
2022-10-09T01:04:25.709Z,19.63
2022-10-09T01:04:48.024Z,18.95
2022-10-09T01:05:11.694Z,18.02
2022-10-09T01:05:49.717Z,18.23
2022-10-09T01:06:24.763Z,20.58
2022-10-09T01:06:58.683Z,20.42
2022-10-09T01:07:55.775Z,19.80
2022-10-09T01:08:43.655Z,17.40
2022-10-09T01:09:25.416Z,17.92
2022-10-09T01:10:08.400Z,18.02
2022-10-09T01:10:46.058Z,21.85
2022-10-09T01:11:25.682Z,22.52
2022-10-09T01:12:10.427Z,19.52
2022-10-09T01:12:53.570Z,17.35
2022-10-09T01:13:42.999Z,18.00
2022-10-09T01:14:17.207Z,18.70
2022-10-09T01:14:56.619Z,19.90
2022-10-09T01:15:23.657Z,16.00
2022-10-09T01:15:56.275Z,20.40
2022-10-09T01:16:31.049Z,18.85
2022-10-09T01:16:58.559Z,18.30
2022-10-09T01:17:53.816Z,19.20
2022-10-09T01:18:42.798Z,16.20
2022-10-09T01:19:42.415Z,18.83
2022-10-09T01:20:58.347Z,18.08
2022-10-09T01:21:41.126Z,20.25
2022-10-09T01:22:31.397Z,15.52
2022-10-09T01:23:22.452Z,22.30
2022-10-09T01:24:17.811Z,15.77
2022-10-09T01:24:48.363Z,15.52
2022-10-09T01:25:19.674Z,17.90
2022-10-09T01:26:15.516Z,16.92
2022-10-09T01:26:52.366Z,19.90
2022-10-09T01:27:41.967Z,16.38
2022-10-09T01:28:06.441Z,17.85
2022-10-09T01:28:30.408Z,15.13
2022-10-09T01:28:57.367Z,17.63
2022-10-09T01:29:21.784Z,17.10
2022-10-09T01:29:49.345Z,18.33
2022-10-09T01:30:12.584Z,16.95
2022-10-09T01:30:35.601Z,19.92
2022-10-09T01:31:03.491Z,17.05
2022-10-09T01:31:30.688Z,15.40
2022-10-09T01:31:52.944Z,16.52
2022-10-09T01:32:20.589Z,15.30
2022-10-09T01:32:46.217Z,19.13
2022-10-09T01:33:09.240Z,15.75
2022-10-09T01:33:34.489Z,15.35
2022-10-09T01:33:57.604Z,17.00
2022-10-09T01:34:21.539Z,16.58
2022-10-09T01:34:45.985Z,17.42
2022-10-09T01:35:09.116Z,15.98
2022-10-09T01:35:31.308Z,17.67
2022-10-09T01:35:53.882Z,17.17
2022-10-09T01:36:17.431Z,16.10
2022-10-09T01:36:40.647Z,14.98
2022-10-09T01:37:03.734Z,14.43
2022-10-09T01:37:27.069Z,18.05
2022-10-09T01:37:52.308Z,16.80
2022-10-09T01:38:14.903Z,18.20
2022-10-09T01:38:39.324Z,17.00
2022-10-09T01:39:03.465Z,17.60
2022-10-09T01:39:26.996Z,16.20
2022-10-09T01:39:49.489Z,14.27
2022-10-09T01:40:14.594Z,15.18
2022-10-09T01:40:36.931Z,16.63
2022-10-09T01:40:59.132Z,17.00
2022-10-09T01:41:21.411Z,16.15
2022-10-09T01:41:43.694Z,14.75
2022-10-09T01:42:06.439Z,13.48
2022-10-09T01:42:31.099Z,13.88
2022-10-09T01:42:54.034Z,15.65
2022-10-09T01:43:40.933Z,16.52
2022-10-09T01:44:02.849Z,15.30
2022-10-09T01:44:30.269Z,15.93
2022-10-09T01:44:52.148Z,15.80
2022-10-09T01:45:14.815Z,15.05
2022-10-09T01:45:39.871Z,14.73
2022-10-09T01:46:27.350Z,17.25
2022-10-09T01:46:49.291Z,12.55
2022-10-09T01:47:15.972Z,12.98
2022-10-09T01:47:38.184Z,13.57
2022-10-09T01:47:59.872Z,13.18
2022-10-09T01:48:25.123Z,12.13
2022-10-09T01:49:01.049Z,13.90
2022-10-09T01:49:43.597Z,11.80
2022-10-09T01:50:19.476Z,13.70
2022-10-09T01:50:45.613Z,12.18
2022-10-09T01:51:07.676Z,13.52
2022-10-09T01:54:13.033Z,13.88
2022-10-09T01:55:27.507Z,13.13
2022-10-09T01:55:53.845Z,11.80
2022-10-09T01:56:22.049Z,12.05
2022-10-09T01:56:49.331Z,12.07
2022-10-09T01:57:13.930Z,9.35
2022-10-09T01:57:55.258Z,10.70
2022-10-09T01:58:19.813Z,12.27
2022-10-09T01:59:04.045Z,12.48
2022-10-09T01:59:29.791Z,11.23
2022-10-09T01:59:52.539Z,10.55
2022-10-09T02:00:14.686Z,12.23
2022-10-09T02:00:41.580Z,11.68
2022-10-09T02:01:12.270Z,11.52
2022-10-09T02:01:37.498Z,11.68
2022-10-09T02:02:00.183Z,13.02
2022-10-09T02:02:22.865Z,13.18
2022-10-09T02:02:47.232Z,13.13
2022-10-09T02:03:13.316Z,10.27
2022-10-09T02:03:39.042Z,11.38
2022-10-09T02:04:05.627Z,12.73
2022-10-09T02:04:29.649Z,12.07
2022-10-09T02:04:53.492Z,11.80
2022-10-09T02:05:27.490Z,11.07
2022-10-09T02:05:52.814Z,13.88
2022-10-09T02:06:16.623Z,9.32
2022-10-09T02:09:17.855Z,10.13
2022-10-09T02:09:18.009Z,11.05
2022-10-09T02:09:40.982Z,11.05
2022-10-09T02:10:06.083Z,11.02
2022-10-09T02:10:28.313Z,10.75
2022-10-09T02:10:54.631Z,11.80
2022-10-09T02:11:17.067Z,11.57
2022-10-09T02:12:09.372Z,11.35
2022-10-09T02:12:35.191Z,11.60
2022-10-09T02:12:59.825Z,9.00
2022-10-09T02:19:44.032Z,12.13
2022-10-09T02:20:21.908Z,9.38
2022-10-09T02:20:48.469Z,9.45
2022-10-09T02:21:22.253Z,10.13
2022-10-09T02:21:55.694Z,9.40
2022-10-09T02:22:28.104Z,10.13
2022-10-09T02:22:50.507Z,13.07
2022-10-09T02:23:15.259Z,12.38
2022-10-09T02:23:39.689Z,12.95
2022-10-09T02:24:04.126Z,11.35
2022-10-09T02:24:26.898Z,12.85
2022-10-09T02:24:48.928Z,10.80
2022-10-09T02:25:11.223Z,10.80
2022-10-09T02:25:33.440Z,10.05
2022-10-09T02:25:55.569Z,11.73
2022-10-09T02:26:18.531Z,11.93
2022-10-09T02:26:41.517Z,11.10
2022-10-09T02:27:03.436Z,11.93
2022-10-09T02:27:26.250Z,9.02
2022-10-09T02:27:48.380Z,11.05
2022-10-09T02:28:10.861Z,11.63
2022-10-09T02:28:32.964Z,11.05
2022-10-09T02:28:55.037Z,13.20
2022-10-09T02:29:17.442Z,10.20
2022-10-09T02:29:41.551Z,10.57
2022-10-09T02:30:06.026Z,11.30
2022-10-09T02:30:34.036Z,12.05
2022-10-09T02:31:19.592Z,12.07
2022-10-09T02:31:43.094Z,9.80
2022-10-09T02:32:04.825Z,10.75
2022-10-09T02:32:27.085Z,11.07
2022-10-09T02:32:53.411Z,10.45
2022-10-09T02:33:15.224Z,9.90
2022-10-09T02:33:37.041Z,11.35
2022-10-09T02:34:07.119Z,10.60
2022-10-09T02:34:28.806Z,11.10
2022-10-09T02:34:51.077Z,9.23
2022-10-09T02:35:12.786Z,10.30
2022-10-09T02:35:35.291Z,9.60
2022-10-09T02:35:57.391Z,9.88
2022-10-09T02:36:19.087Z,9.95
2022-10-09T02:36:40.971Z,10.82
2022-10-09T02:37:02.774Z,12.40
2022-10-09T02:37:24.533Z,10.95
2022-10-09T02:37:46.434Z,10.27
2022-10-09T02:38:08.182Z,10.20
2022-10-09T02:38:30.067Z,9.77
2022-10-09T02:38:52.727Z,8.45
2022-10-09T02:39:15.130Z,8.35
2022-10-09T02:39:40.060Z,11.98
2022-10-09T02:40:03.982Z,9.20
2022-10-09T02:41:28.680Z,12.48
2022-10-09T02:42:21.162Z,9.32
2022-10-09T02:43:34.332Z,10.43
2022-10-09T02:43:56.440Z,9.27
2022-10-09T02:44:18.284Z,9.77
2022-10-09T02:44:42.714Z,10.20
2022-10-09T02:46:17.308Z,14.00
2022-10-09T02:46:39.244Z,11.38
2022-10-09T02:47:01.003Z,9.88
2022-10-09T02:47:22.977Z,10.45
2022-10-09T02:49:08.614Z,10.40
2022-10-09T02:50:57.924Z,10.13
2022-10-09T02:54:47.458Z,11.38
2022-10-09T02:55:44.236Z,11.15
2022-10-09T02:56:06.517Z,9.15
2022-10-09T02:56:29.074Z,9.15
2022-10-09T02:56:50.853Z,11.95
2022-10-09T02:57:12.787Z,10.95
2022-10-09T02:57:34.506Z,9.20
2022-10-09T02:57:56.180Z,9.07
2022-10-09T02:58:17.951Z,9.20
2022-10-09T02:58:40.103Z,8.65
2022-10-09T02:59:02.064Z,9.23
2022-10-09T02:59:23.798Z,9.48
2022-10-09T02:59:45.740Z,7.53
2022-10-09T03:00:08.072Z,9.40
2022-10-09T03:00:29.807Z,9.52
2022-10-09T03:00:53.398Z,8.07
2022-10-09T03:01:16.390Z,8.77
2022-10-09T03:01:38.217Z,8.60
2022-10-09T03:02:00.214Z,10.35
2022-10-09T03:02:22.207Z,9.82
2022-10-09T03:02:44.155Z,10.95
2022-10-09T03:03:06.271Z,9.60
2022-10-09T03:03:28.604Z,8.98
2022-10-09T03:03:50.673Z,9.82
2022-10-09T03:04:12.524Z,11.05
2022-10-09T03:04:34.204Z,8.90
2022-10-09T03:04:55.938Z,10.57
2022-10-09T03:05:17.726Z,9.15
2022-10-09T03:05:39.997Z,11.38
2022-10-09T03:06:02.522Z,13.20
2022-10-09T03:06:27.445Z,8.23
2022-10-09T03:06:49.476Z,8.23
2022-10-09T03:07:11.261Z,8.35
2022-10-09T03:07:32.982Z,9.38
2022-10-09T03:07:54.718Z,10.07
2022-10-09T03:08:16.475Z,8.73
2022-10-09T03:08:40.681Z,8.77
2022-10-09T03:09:02.582Z,7.22
2022-10-09T03:09:24.552Z,8.57
2022-10-09T03:09:46.238Z,8.60
2022-10-09T03:10:08.219Z,7.50
2022-10-09T03:10:30.066Z,7.80
2022-10-09T03:10:51.863Z,8.38
2022-10-09T03:11:16.394Z,8.05
2022-10-09T03:11:38.087Z,8.05
2022-10-09T03:11:59.905Z,8.15
2022-10-09T03:12:22.171Z,10.27
2022-10-09T03:12:43.857Z,9.15
2022-10-09T03:13:06.589Z,7.13
2022-10-09T03:13:28.883Z,6.00
2022-10-09T03:13:50.966Z,9.02
2022-10-09T03:14:12.885Z,10.93
2022-10-09T03:14:35.382Z,13.27
2022-10-09T03:14:57.105Z,6.75
2022-10-09T03:15:18.839Z,8.27
2022-10-09T03:15:40.974Z,7.78
2022-10-09T03:16:14.227Z,8.48
2022-10-09T03:16:36.055Z,7.47
2022-10-09T03:16:57.937Z,7.63
2022-10-09T03:17:47.521Z,6.93
2022-10-09T03:18:09.280Z,6.90
2022-10-09T03:18:40.541Z,9.90
2022-10-09T03:19:14.749Z,9.13
2022-10-09T03:20:28.592Z,8.07
2022-10-09T03:22:05.206Z,9.32
2022-10-09T03:22:26.942Z,7.47
2022-10-09T03:22:48.970Z,8.45
2022-10-09T03:23:11.511Z,9.45
2022-10-09T03:23:34.102Z,9.90
2022-10-09T03:23:57.736Z,8.48
2022-10-09T03:24:19.711Z,8.98
2022-10-09T03:24:41.599Z,7.18
2022-10-09T03:25:03.642Z,8.63
2022-10-09T03:25:25.643Z,8.27
2022-10-09T03:25:58.775Z,9.38
2022-10-09T03:26:23.555Z,8.95
2022-10-09T03:26:45.448Z,10.70
2022-10-09T03:27:07.239Z,7.30
2022-10-09T03:27:31.176Z,7.25
2022-10-09T03:27:52.894Z,8.57
2022-10-09T03:28:14.868Z,9.13
2022-10-09T03:28:41.468Z,8.77
2022-10-09T03:29:03.337Z,7.07
2022-10-09T03:29:26.277Z,6.47
2022-10-09T03:29:48.192Z,7.13
2022-10-09T03:30:10.301Z,8.13
2022-10-09T03:30:32.084Z,9.05
2022-10-09T03:30:54.192Z,7.47
2022-10-09T03:32:03.388Z,8.95
2022-10-09T03:32:25.700Z,8.20
2022-10-09T03:32:47.785Z,9.25
2022-10-09T03:33:09.667Z,7.82
2022-10-09T03:33:31.577Z,6.82
2022-10-09T03:33:53.573Z,6.75
2022-10-09T03:34:15.687Z,7.20
2022-10-09T03:34:37.667Z,11.18
2022-10-09T03:35:36.160Z,9.27
2022-10-09T03:36:12.828Z,11.10
2022-10-09T03:41:15.419Z,9.93
2022-10-09T03:42:42.970Z,8.40
2022-10-09T03:44:52.816Z,8.30
2022-10-09T03:46:45.337Z,8.57
2022-10-09T03:47:46.188Z,8.15
2022-10-09T03:48:09.332Z,8.23
2022-10-09T03:48:31.074Z,8.93
2022-10-09T03:48:53.858Z,9.60
2022-10-09T04:03:07.847Z,6.20
2022-10-09T04:17:45.149Z,6.72
2022-10-09T04:18:06.905Z,8.18
2022-10-09T04:18:28.675Z,5.90
2022-10-09T04:18:50.383Z,8.55
2022-10-09T04:19:12.166Z,9.75
2022-10-09T04:19:34.136Z,7.95
2022-10-09T04:19:56.373Z,7.50
2022-10-09T04:20:19.529Z,5.63
2022-10-09T04:20:48.957Z,7.10
2022-10-09T04:21:11.918Z,7.10
2022-10-09T04:21:33.996Z,5.80
2022-10-09T04:21:55.715Z,5.22
2022-10-09T04:22:17.423Z,5.57
2022-10-09T04:22:39.185Z,5.60
2022-10-09T04:23:01.223Z,6.32
2022-10-09T04:24:47.861Z,10.20
2022-10-09T04:25:09.821Z,8.57
2022-10-09T04:27:05.755Z,6.88
2022-10-09T04:32:02.866Z,5.90
2022-10-09T04:33:00.206Z,6.57
2022-10-09T04:33:22.161Z,8.85
2022-10-09T04:33:43.916Z,8.68
2022-10-09T04:34:05.802Z,7.93
2022-10-09T04:34:27.825Z,7.63
2022-10-09T04:34:49.550Z,6.68
2022-10-09T04:35:11.594Z,7.90
2022-10-09T04:35:33.380Z,6.30
2022-10-09T04:35:56.729Z,9.27
2022-10-09T04:36:19.125Z,9.98
2022-10-09T04:36:40.872Z,6.43
2022-10-09T04:37:02.641Z,6.30
2022-10-09T04:37:24.776Z,7.93
2022-10-09T04:37:46.655Z,8.10
2022-10-09T04:38:08.513Z,7.70
2022-10-09T04:38:31.576Z,8.20
2022-10-09T04:38:53.363Z,9.95
2022-10-09T04:39:15.146Z,10.35
2022-10-09T04:39:37.445Z,8.73
2022-10-09T04:39:59.228Z,7.82
2022-10-09T04:40:21.025Z,8.27
2022-10-09T04:40:42.921Z,7.40
2022-10-09T04:41:06.815Z,8.57
2022-10-09T04:41:28.588Z,9.73
2022-10-09T04:41:50.374Z,9.43
2022-10-09T04:43:46.619Z,6.15
2022-10-09T04:45:26.781Z,8.68
2022-10-09T04:45:45.307Z,10.00
2022-10-09T04:46:09.097Z,8.27
2022-10-09T04:46:30.977Z,7.28
2022-10-09T04:47:15.484Z,7.93
2022-10-09T04:47:43.348Z,9.52
2022-10-09T04:48:27.722Z,9.98
2022-10-09T04:48:49.474Z,8.40
2022-10-09T04:49:41.613Z,7.50
2022-10-09T04:50:51.424Z,10.00
2022-10-09T04:51:31.870Z,9.77
2022-10-09T04:52:09.837Z,12.60
2022-10-09T04:52:52.662Z,14.02
2022-10-09T04:54:24.255Z,11.85
2022-10-09T04:54:58.006Z,11.70
2022-10-09T04:55:33.952Z,12.07
2022-10-09T04:55:56.407Z,11.68
2022-10-09T04:56:20.494Z,14.05
2022-10-09T04:56:42.207Z,14.95
2022-10-09T04:57:04.201Z,12.80
2022-10-09T04:57:26.922Z,13.40
2022-10-09T04:57:48.693Z,13.57
2022-10-09T04:58:11.653Z,11.68
2022-10-09T04:58:36.574Z,10.90
2022-10-09T04:58:58.289Z,11.98
2022-10-09T04:59:20.195Z,11.88
2022-10-09T04:59:42.420Z,12.45
2022-10-09T05:00:04.946Z,11.60
2022-10-09T05:00:26.724Z,12.90
2022-10-09T05:00:49.439Z,13.07
2022-10-09T05:01:17.689Z,13.57
2022-10-09T05:01:39.585Z,13.77
2022-10-09T05:02:01.444Z,14.43
2022-10-09T05:02:23.321Z,12.02
2022-10-09T05:02:45.086Z,11.75
2022-10-09T05:03:06.841Z,13.90
2022-10-09T05:03:28.617Z,13.68
2022-10-09T05:03:51.582Z,13.20
2022-10-09T05:04:13.337Z,11.43
2022-10-09T05:04:35.228Z,11.13
2022-10-09T05:04:57.389Z,13.48
2022-10-09T05:05:19.093Z,13.60
2022-10-09T05:05:42.083Z,13.57
2022-10-09T05:06:06.600Z,12.90
2022-10-09T05:06:28.338Z,13.48
2022-10-09T05:06:50.026Z,11.25
2022-10-09T05:07:12.927Z,10.77
2022-10-09T05:07:34.700Z,11.82
2022-10-09T05:07:56.477Z,12.27
2022-10-09T05:08:18.213Z,13.23
2022-10-09T05:08:40.467Z,14.25
2022-10-09T05:09:02.183Z,11.95
2022-10-09T05:09:24.039Z,12.43
2022-10-09T05:09:46.086Z,12.77
2022-10-09T05:10:08.339Z,11.63
2022-10-09T05:10:32.407Z,12.45
2022-10-09T05:10:54.361Z,10.57
2022-10-09T05:11:18.714Z,10.77
2022-10-09T05:11:42.664Z,12.77
2022-10-09T05:12:05.238Z,12.55
2022-10-09T05:12:27.383Z,12.43
2022-10-09T05:12:49.745Z,10.05
2022-10-09T05:13:12.750Z,10.77
2022-10-09T05:13:37.652Z,10.63
2022-10-09T05:13:59.395Z,10.73
2022-10-09T05:14:21.178Z,11.27
2022-10-09T05:14:43.018Z,10.23
2022-10-09T05:15:05.843Z,11.27
2022-10-09T05:15:27.643Z,10.02
2022-10-09T05:15:49.392Z,10.07
2022-10-09T05:16:14.579Z,10.63
2022-10-09T05:17:00.894Z,11.65
2022-10-09T05:17:22.758Z,11.57
2022-10-09T05:17:45.155Z,9.32
2022-10-09T05:18:07.335Z,9.68
2022-10-09T05:18:29.672Z,10.90
2022-10-09T05:18:54.112Z,10.45
2022-10-09T05:19:15.988Z,10.30
2022-10-09T05:19:37.674Z,9.85
2022-10-09T05:19:59.559Z,10.30
2022-10-09T05:21:40.115Z,11.52
2022-10-09T05:22:01.967Z,16.38
2022-10-09T05:22:23.770Z,16.27
2022-10-09T05:22:45.952Z,17.35
2022-10-09T05:23:07.692Z,16.23
2022-10-09T05:23:29.458Z,17.15
2022-10-09T05:23:53.292Z,18.77
2022-10-09T05:24:15.240Z,18.98
2022-10-09T05:24:36.998Z,18.25
2022-10-09T05:24:58.706Z,16.85
2022-10-09T05:25:20.651Z,21.45
2022-10-09T05:25:42.353Z,22.73
2022-10-09T05:26:07.351Z,20.30
2022-10-09T05:26:29.378Z,18.05
2022-10-09T05:26:51.146Z,18.58
2022-10-09T05:27:12.912Z,20.33
2022-10-09T05:27:34.965Z,16.20
2022-10-09T05:27:56.847Z,19.42
2022-10-09T05:28:18.681Z,18.52
2022-10-09T05:29:26.620Z,16.92
2022-10-09T05:29:48.542Z,15.68
2022-10-09T05:30:11.546Z,15.38
2022-10-09T05:30:51.415Z,13.65
2022-10-09T05:32:55.486Z,14.52
2022-10-09T05:37:26.852Z,10.60
2022-10-09T05:40:04.828Z,8.13
2022-10-09T05:40:55.408Z,8.93
2022-10-09T05:41:19.129Z,10.65
2022-10-09T05:41:41.206Z,9.57
2022-10-09T05:42:30.581Z,8.60
2022-10-09T05:43:58.291Z,10.02
2022-10-09T05:45:19.615Z,12.07
2022-10-09T05:45:43.594Z,8.77
2022-10-09T05:46:10.019Z,8.32
2022-10-09T05:46:32.006Z,9.13
2022-10-09T05:46:54.056Z,11.93
2022-10-09T05:47:19.751Z,9.35
2022-10-09T05:47:20.983Z,10.50
2022-10-09T05:47:41.697Z,9.77
2022-10-09T05:48:03.687Z,10.60
2022-10-09T05:48:25.573Z,10.30
2022-10-09T05:49:05.212Z,9.18
2022-10-09T05:49:26.908Z,8.90
2022-10-09T05:49:48.891Z,8.75
2022-10-09T05:50:10.633Z,9.30
2022-10-09T05:50:32.337Z,9.80
2022-10-09T05:50:54.088Z,10.20
2022-10-09T05:51:20.145Z,10.70
2022-10-09T05:51:45.201Z,8.90
2022-10-09T05:52:06.901Z,8.57
2022-10-09T05:52:29.004Z,9.10
2022-10-09T05:52:50.990Z,9.45
2022-10-09T05:53:13.272Z,9.50
2022-10-09T05:53:35.600Z,10.20
2022-10-09T05:53:58.718Z,11.10
2022-10-09T05:54:20.542Z,11.02
2022-10-09T05:54:42.498Z,9.50
2022-10-09T05:55:04.519Z,11.98
2022-10-09T05:55:27.304Z,12.65
2022-10-09T05:55:49.100Z,11.30
2022-10-09T05:56:11.893Z,14.55
2022-10-09T05:56:36.608Z,12.15
2022-10-09T05:56:59.041Z,11.80
2022-10-09T05:57:20.749Z,11.55
2022-10-09T05:57:42.558Z,11.25
2022-10-09T05:58:04.380Z,11.38
2022-10-09T05:58:26.074Z,12.30
2022-10-09T05:58:59.268Z,13.07
2022-10-09T05:59:22.111Z,13.05
2022-10-09T05:59:44.010Z,13.25
2022-10-09T06:00:06.608Z,12.93
2022-10-09T06:00:28.611Z,16.55
2022-10-09T06:00:50.542Z,13.38
2022-10-09T06:01:12.368Z,14.00
2022-10-09T06:01:36.942Z,15.88
2022-10-09T06:01:59.392Z,15.35
2022-10-09T06:02:22.422Z,14.60
2022-10-09T06:02:44.657Z,16.73
2022-10-09T06:03:06.565Z,15.38
2022-10-09T06:04:55.513Z,13.82
2022-10-09T06:05:17.480Z,18.33
2022-10-09T06:05:39.178Z,14.40
2022-10-09T06:06:02.036Z,14.07
2022-10-09T06:07:36.329Z,14.32
2022-10-09T06:07:58.430Z,14.85
2022-10-09T06:09:08.791Z,14.40
2022-10-09T06:11:57.736Z,14.57
2022-10-09T06:12:19.540Z,15.52
2022-10-09T06:12:41.419Z,16.63
2022-10-09T06:13:03.184Z,15.75
2022-10-09T06:13:25.034Z,18.45
2022-10-09T06:13:47.609Z,19.75
2022-10-09T06:14:11.211Z,18.50
2022-10-09T06:14:32.959Z,15.93
2022-10-09T06:14:54.657Z,17.52
2022-10-09T06:15:16.487Z,17.88
2022-10-09T06:15:38.261Z,17.52
2022-10-09T06:16:00.516Z,16.17
2022-10-09T06:16:26.763Z,15.55
2022-10-09T06:16:48.938Z,15.05
2022-10-09T06:17:10.742Z,16.20
2022-10-09T06:17:33.740Z,15.18
2022-10-09T06:17:55.981Z,17.85
2022-10-09T06:18:18.069Z,17.20
2022-10-09T06:18:43.504Z,16.88
2022-10-09T06:19:08.498Z,17.15
2022-10-09T06:19:30.249Z,17.58
2022-10-09T06:19:52.014Z,16.92
2022-10-09T06:20:16.192Z,16.05
2022-10-09T06:20:38.190Z,17.38
2022-10-09T06:21:02.108Z,17.92
2022-10-09T06:24:58.233Z,17.63
2022-10-09T06:25:41.013Z,19.17
2022-10-09T06:26:45.403Z,17.70
2022-10-09T06:28:26.835Z,17.40
2022-10-09T06:36:37.344Z,11.98
2022-10-09T06:36:59.154Z,12.77
2022-10-09T06:40:07.026Z,9.77
2022-10-09T06:40:46.441Z,9.25
2022-10-09T06:45:20.784Z,8.05
2022-10-09T06:46:50.858Z,7.15
2022-10-09T07:11:00.197Z,5.80
2022-10-09T07:16:32.720Z,5.03
2022-10-09T07:25:24.475Z,9.45
2022-10-09T07:25:58.692Z,5.18
2022-10-09T07:26:26.724Z,4.30
2022-10-09T07:26:49.164Z,5.05
2022-10-09T07:27:58.915Z,5.60
2022-10-09T07:28:20.705Z,4.15
2022-10-09T07:32:32.564Z,4.28
2022-10-09T07:32:54.392Z,5.43
2022-10-09T07:33:17.969Z,5.50
2022-10-09T07:33:39.870Z,6.15
2022-10-09T07:34:02.078Z,6.65
2022-10-09T07:34:24.082Z,5.63
2022-10-09T07:34:46.048Z,4.88
2022-10-09T07:35:08.034Z,4.45
2022-10-09T07:35:29.852Z,4.75
2022-10-09T07:35:56.040Z,4.28
2022-10-09T07:36:21.675Z,3.55
2022-10-09T07:36:44.010Z,4.90
2022-10-09T07:37:11.600Z,6.15
2022-10-09T07:37:34.159Z,6.10
2022-10-09T07:38:01.404Z,3.50
2022-10-09T07:38:31.679Z,6.30
2022-10-09T07:38:56.456Z,4.75
2022-10-09T07:39:24.255Z,6.13
2022-10-09T07:39:51.089Z,4.85
2022-10-09T07:40:13.684Z,5.03
2022-10-09T07:40:48.247Z,5.55
2022-10-09T07:41:16.430Z,7.15
2022-10-09T07:41:38.736Z,14.70
2022-10-09T07:42:20.003Z,15.23
2022-10-09T07:42:46.522Z,14.35
2022-10-09T07:43:14.287Z,12.27
2022-10-09T07:43:47.368Z,9.85
2022-10-09T07:44:18.676Z,11.80
2022-10-09T07:44:44.086Z,14.90
2022-10-09T07:45:10.462Z,14.82
2022-10-09T07:45:32.742Z,13.07
2022-10-09T07:48:03.992Z,14.05
2022-10-09T07:48:44.113Z,13.15
2022-10-09T07:49:08.768Z,11.70
2022-10-09T07:49:31.478Z,13.40
2022-10-09T07:49:53.976Z,14.27
2022-10-09T07:50:16.897Z,17.23
2022-10-09T07:50:39.322Z,14.00
2022-10-09T07:51:11.870Z,12.27
2022-10-09T07:51:37.627Z,10.43
2022-10-09T07:51:59.376Z,8.43
2022-10-09T07:52:22.372Z,10.30
2022-10-09T07:52:54.424Z,9.73
2022-10-09T07:53:17.123Z,10.07
2022-10-09T07:53:42.638Z,10.98
2022-10-09T07:54:05.215Z,15.50
2022-10-09T07:54:30.625Z,12.70
2022-10-09T07:55:02.282Z,10.68
2022-10-09T07:55:24.618Z,12.00
2022-10-09T07:55:50.432Z,9.43
2022-10-09T07:56:26.850Z,9.02
2022-10-09T07:56:49.204Z,11.48
2022-10-09T07:57:12.569Z,11.45
2022-10-09T07:57:35.397Z,10.07
2022-10-09T07:57:57.627Z,10.45
2022-10-09T07:58:20.313Z,9.93
2022-10-09T07:58:43.704Z,11.15
2022-10-09T07:59:08.800Z,12.10
2022-10-09T07:59:31.619Z,9.50
2022-10-09T07:59:55.586Z,9.68
2022-10-09T08:00:22.137Z,12.60
2022-10-09T08:00:47.949Z,8.68
2022-10-09T08:01:14.019Z,8.20
2022-10-09T08:01:40.266Z,11.00
2022-10-09T08:02:02.886Z,10.40
2022-10-09T08:02:25.566Z,8.50
2022-10-09T08:02:48.535Z,9.70
2022-10-09T08:03:11.390Z,9.90
2022-10-09T08:03:34.192Z,10.98
2022-10-09T08:04:01.503Z,10.85
2022-10-09T08:04:23.960Z,10.70
2022-10-09T08:04:58.809Z,10.80
2022-10-09T08:05:21.497Z,8.73
2022-10-09T08:05:44.051Z,10.77
2022-10-09T08:06:14.241Z,9.07
2022-10-09T08:06:44.877Z,10.40
2022-10-09T08:07:16.492Z,9.25
2022-10-09T08:07:39.148Z,11.55
2022-10-09T08:08:44.684Z,9.60
2022-10-09T08:10:08.587Z,9.05
2022-10-09T08:10:32.924Z,7.88
2022-10-09T08:12:00.478Z,8.60
2022-10-09T08:12:28.222Z,8.65
2022-10-09T08:12:57.130Z,8.35
2022-10-09T08:13:26.727Z,8.20
2022-10-09T08:14:24.945Z,7.80
2022-10-09T08:14:49.044Z,8.90
2022-10-09T08:15:13.326Z,7.18
2022-10-09T08:16:45.254Z,7.50
2022-10-09T08:17:12.638Z,7.80
2022-10-09T08:17:38.388Z,7.53
2022-10-09T08:19:08.736Z,7.13
2022-10-09T08:51:12.755Z,9.50
2022-10-09T08:51:52.045Z,8.18
2022-10-09T08:52:49.847Z,7.60
2022-10-09T08:53:46.306Z,7.43
2022-10-09T08:54:38.069Z,6.32
2022-10-09T08:55:55.858Z,5.05
2022-10-09T08:58:53.551Z,6.68
2022-10-09T08:59:16.191Z,8.48
2022-10-09T08:59:39.099Z,10.77
2022-10-09T09:00:02.818Z,7.60
2022-10-09T09:00:31.555Z,7.90
2022-10-09T09:01:19.934Z,8.52
2022-10-09T09:02:19.544Z,7.70
2022-10-09T09:03:08.855Z,6.32
2022-10-09T09:03:56.084Z,7.13
2022-10-09T09:04:45.344Z,7.75
2022-10-09T09:05:36.954Z,7.80
2022-10-09T09:06:18.258Z,5.60
2022-10-09T09:06:54.589Z,6.90
2022-10-09T09:08:03.368Z,6.32
2022-10-09T09:09:01.068Z,8.80
2022-10-09T09:09:29.274Z,9.88
2022-10-09T09:10:13.313Z,8.88
2022-10-09T09:10:54.510Z,11.65
2022-10-09T09:11:39.783Z,9.63
2022-10-09T09:12:28.373Z,9.45
2022-10-09T09:13:11.516Z,8.13
2022-10-09T09:13:39.626Z,8.32
2022-10-09T09:14:22.931Z,9.27
2022-10-09T09:15:13.117Z,12.15
2022-10-09T09:15:51.308Z,12.50
2022-10-09T09:16:40.267Z,18.02
2022-10-09T09:17:38.888Z,10.43
2022-10-09T09:18:23.689Z,14.57
2022-10-09T09:19:01.453Z,9.50
2022-10-09T09:19:38.718Z,12.30
2022-10-09T09:20:22.076Z,15.38
2022-10-09T09:20:57.018Z,13.00
2022-10-09T09:21:48.401Z,10.63
2022-10-09T09:22:14.657Z,10.52
2022-10-09T09:22:43.355Z,12.68
2022-10-09T09:23:13.360Z,9.75
2022-10-09T09:23:40.892Z,6.82
2022-10-09T09:24:12.530Z,8.73
2022-10-09T09:24:40.032Z,7.57
2022-10-09T09:25:21.602Z,4.78
2022-10-09T09:25:46.308Z,6.00
2022-10-09T09:26:21.307Z,6.25
2022-10-09T09:26:45.291Z,5.70
2022-10-09T09:27:31.212Z,6.97
2022-10-09T09:27:57.721Z,8.25
2022-10-09T09:28:31.669Z,8.87
2022-10-09T09:29:02.119Z,13.50
2022-10-09T09:29:25.721Z,36.25
2022-10-09T09:30:26.453Z,45.08